Time;durP1;ratioP1;P1;durP2;ratioP2;P2;SDS_P1;SDS_P2;PMS_P1;PMS_P2;Temp;Humidity;BMP_temperature;BMP_pressure;BME280_temperature;BME280_humidity;BME280_pressure;Samples;Min_cycle;Max_cycle;Signal;HPM_P1;HPM_P2
2022/09/23 00:01:13;;;;;;;69.15;21.08;;;;;;;;;;4958818;28;20210;-54
2022/09/23 00:03:42;;;;;;;29.45;12.15;;;;;;;;;;4976433;28;20317;-48
2022/09/23 00:06:14;;;;;;;61.15;20.23;;;;;;;;;;4976071;28;20206;-49
2022/09/23 00:08:42;;;;;;;24.60;11.05;;;;;;;;;;4976081;28;20207;-49
2022/09/23 00:11:11;;;;;;;14.02;7.50;;;;;;;;;;4970231;28;20202;-49
2022/09/23 00:13:39;;;;;;;9.48;5.93;;;;;;;;;;4975840;28;20289;-48
2022/09/23 00:16:09;;;;;;;7.53;5.20;;;;;;;;;;4959453;28;20546;-52
2022/09/23 00:18:37;;;;;;;7.47;5.22;;;;;;;;;;4975819;28;20198;-50
2022/09/23 00:21:05;;;;;;;6.65;5.00;;;;;;;;;;4976360;28;20203;-50
2022/09/23 00:23:32;;;;;;;10.38;5.43;;;;;;;;;;4975799;28;20214;-50
2022/09/23 00:26:00;;;;;;;8.13;5.72;;;;;;;;;;4975715;28;20210;-49
2022/09/23 00:28:28;;;;;;;8.55;5.82;;;;;;;;;;4975647;28;20273;-50
2022/09/23 00:30:55;;;;;;;6.80;5.40;;;;;;;;;;4975978;28;20210;-51
2022/09/23 00:33:22;;;;;;;9.93;6.38;;;;;;;;;;4979693;28;20226;-50
2022/09/23 00:35:49;;;;;;;9.95;6.40;;;;;;;;;;4979448;28;20578;-50
2022/09/23 00:38:16;;;;;;;9.77;6.60;;;;;;;;;;4979578;28;20203;-48
2022/09/23 00:40:44;;;;;;;12.38;6.22;;;;;;;;;;4979227;28;20636;-49
2022/09/23 00:43:13;;;;;;;11.85;6.78;;;;;;;;;;4962908;28;20288;-49
2022/09/23 00:45:45;;;;;;;8.77;6.53;;;;;;;;;;4979284;28;20199;-51
2022/09/23 00:48:18;;;;;;;8.05;6.25;;;;;;;;;;4979394;28;20226;-50
2022/09/23 00:50:50;;;;;;;9.55;5.95;;;;;;;;;;4979207;28;20191;-50
2022/09/23 00:53:21;;;;;;;9.43;6.88;;;;;;;;;;4962672;28;20549;-49
2022/09/23 00:55:54;;;;;;;15.45;9.23;;;;;;;;;;4963125;28;20201;-49
2022/09/23 00:58:25;;;;;;;24.35;12.00;;;;;;;;;;4962497;28;20203;-48
2022/09/23 01:00:54;;;;;;;19.42;10.48;;;;;;;;;;4979458;28;20211;-51
2022/09/23 01:03:21;;;;;;;16.08;9.38;;;;;;;;;;4978913;28;20214;-49
2022/09/23 01:05:49;;;;;;;9.63;6.45;;;;;;;;;;4973285;28;20559;-51
2022/09/23 01:08:16;;;;;;;10.15;6.45;;;;;;;;;;4979138;28;20211;-48
2022/09/23 01:11:09;;;;;;;8.98;6.47;;;;;;;;;;4962078;28;20539;-48
2022/09/23 01:14:00;;;;;;;7.53;5.68;;;;;;;;;;4978739;28;20663;-48
2022/09/23 01:16:37;;;;;;;8.50;6.28;;;;;;;;;;4979008;28;20538;-56
2022/09/23 01:19:50;;;;;;;8.68;5.82;;;;;;;;;;4978993;28;20209;-50
2022/09/23 01:22:50;;;;;;;10.15;6.63;;;;;;;;;;4978671;28;20199;-48
2022/09/23 01:25:23;;;;;;;9.05;6.50;;;;;;;;;;4962031;28;20640;-55
2022/09/23 01:28:05;;;;;;;10.85;6.72;;;;;;;;;;4962271;28;20194;-50
2022/09/23 01:30:51;;;;;;;9.55;6.93;;;;;;;;;;4978588;28;20537;-48
2022/09/23 01:33:23;;;;;;;9.13;6.80;;;;;;;;;;4978716;28;20234;-50
2022/09/23 01:36:17;;;;;;;9.13;6.75;;;;;;;;;;4962140;28;20210;-49
2022/09/23 01:38:57;;;;;;;9.07;6.80;;;;;;;;;;4978488;28;20290;-50
2022/09/23 01:41:41;;;;;;;10.35;6.70;;;;;;;;;;4962122;28;20234;-49
2022/09/23 01:44:12;;;;;;;10.98;6.53;;;;;;;;;;4961285;28;20285;-49
2022/09/23 01:46:47;;;;;;;16.20;7.68;;;;;;;;;;4961615;28;20218;-48
2022/09/23 01:49:16;;;;;;;9.63;6.72;;;;;;;;;;4961385;28;20628;-51
2022/09/23 01:51:47;;;;;;;10.48;6.85;;;;;;;;;;4978334;28;20202;-50
2022/09/23 01:54:37;;;;;;;8.48;6.30;;;;;;;;;;4978337;28;20602;-49
2022/09/23 01:57:10;;;;;;;9.05;6.82;;;;;;;;;;4978271;28;20563;-49
2022/09/23 01:59:39;;;;;;;9.88;6.72;;;;;;;;;;4960142;28;20261;-54
2022/09/23 02:02:07;;;;;;;9.65;6.93;;;;;;;;;;4975303;28;20528;-49
2022/09/23 02:04:53;;;;;;;10.48;7.13;;;;;;;;;;4977160;28;20230;-50
2022/09/23 02:07:29;;;;;;;7.97;6.40;;;;;;;;;;4961448;28;20207;-50
2022/09/23 02:10:04;;;;;;;15.45;7.50;;;;;;;;;;4978072;28;20191;-49
2022/09/23 02:12:34;;;;;;;11.27;7.28;;;;;;;;;;4978329;28;20273;-49
2022/09/23 02:15:09;;;;;;;9.30;7.57;;;;;;;;;;4961105;28;20814;-50
2022/09/23 02:17:46;;;;;;;9.65;6.28;;;;;;;;;;4961516;28;20210;-49
2022/09/23 02:20:19;;;;;;;8.65;6.90;;;;;;;;;;4978015;28;20194;-49
2022/09/23 02:22:55;;;;;;;9.27;6.45;;;;;;;;;;4977669;28;20211;-52
2022/09/23 02:25:30;;;;;;;9.65;6.55;;;;;;;;;;4978218;28;20187;-49
2022/09/23 02:28:27;;;;;;;11.52;7.22;;;;;;;;;;4961222;28;20229;-49
2022/09/23 02:31:09;;;;;;;8.27;6.28;;;;;;;;;;4977340;28;20206;-52
2022/09/23 02:33:54;;;;;;;9.30;6.80;;;;;;;;;;4961001;28;20234;-50
2022/09/23 02:36:28;;;;;;;10.82;6.80;;;;;;;;;;4977543;28;20225;-50
2022/09/23 02:38:58;;;;;;;10.48;7.10;;;;;;;;;;4960919;28;20183;-49
2022/09/23 02:41:36;;;;;;;12.05;6.70;;;;;;;;;;4960518;28;20230;-50
2022/09/23 02:44:09;;;;;;;10.50;6.78;;;;;;;;;;4961452;28;20228;-48
2022/09/23 02:46:36;;;;;;;9.52;6.70;;;;;;;;;;4960698;28;20583;-48
2022/09/23 02:49:13;;;;;;;11.25;7.28;;;;;;;;;;4976932;28;20636;-49
2022/09/23 02:51:40;;;;;;;10.00;6.93;;;;;;;;;;4960656;28;20216;-51
2022/09/23 02:54:11;;;;;;;10.98;7.18;;;;;;;;;;4960122;28;20234;-51
2022/09/23 02:56:39;;;;;;;10.45;6.43;;;;;;;;;;4954761;28;20246;-49
2022/09/23 02:59:07;;;;;;;10.85;6.40;;;;;;;;;;4976911;28;20202;-48
2022/09/23 03:01:56;;;;;;;9.07;7.03;;;;;;;;;;4977438;28;20207;-48
2022/09/23 03:04:49;;;;;;;9.35;6.90;;;;;;;;;;4977142;28;20195;-50
2022/09/23 03:07:47;;;;;;;10.48;6.70;;;;;;;;;;4960213;28;20194;-49
2022/09/23 03:10:22;;;;;;;9.43;7.05;;;;;;;;;;4960726;28;20217;-50
2022/09/23 03:13:15;;;;;;;9.30;6.20;;;;;;;;;;4960217;28;20265;-50
2022/09/23 03:16:09;;;;;;;10.32;6.45;;;;;;;;;;4960312;28;20575;-52
2022/09/23 03:18:49;;;;;;;10.85;6.45;;;;;;;;;;4960383;28;20197;-50
2022/09/23 03:21:34;;;;;;;10.45;7.05;;;;;;;;;;4959811;28;20202;-51
2022/09/23 03:24:03;;;;;;;9.00;6.80;;;;;;;;;;4977600;28;20198;-49
2022/09/23 03:26:33;;;;;;;8.25;6.47;;;;;;;;;;4959847;28;20569;-49
2022/09/23 03:29:04;;;;;;;9.48;6.70;;;;;;;;;;4976289;28;20206;-48
2022/09/23 03:31:32;;;;;;;8.57;6.72;;;;;;;;;;4976538;28;20202;-48
2022/09/23 03:34:00;;;;;;;9.77;6.57;;;;;;;;;;4959650;28;20264;-48
2022/09/23 03:36:50;;;;;;;7.97;6.43;;;;;;;;;;4976190;28;20206;-48
2022/09/23 03:39:27;;;;;;;12.25;7.60;;;;;;;;;;4961717;28;20286;-50
2022/09/23 03:41:56;;;;;;;11.27;7.13;;;;;;;;;;4959668;28;20234;-49
2022/09/23 03:44:27;;;;;;;9.85;6.57;;;;;;;;;;4960233;28;20226;-49
2022/09/23 03:47:01;;;;;;;9.40;7.00;;;;;;;;;;4976304;28;20631;-50
2022/09/23 03:49:33;;;;;;;7.85;6.40;;;;;;;;;;4976147;28;20202;-48
2022/09/23 03:52:02;;;;;;;8.90;6.75;;;;;;;;;;4954838;28;20218;-49
2022/09/23 03:54:29;;;;;;;12.23;6.97;;;;;;;;;;4974776;28;20226;-49
2022/09/23 03:56:57;;;;;;;12.90;6.78;;;;;;;;;;4976143;28;20203;-49
2022/09/23 03:59:24;;;;;;;11.52;7.10;;;;;;;;;;4975985;28;20233;-56
2022/09/23 04:01:52;;;;;;;9.35;6.72;;;;;;;;;;4977027;28;20234;-50
2022/09/23 04:04:19;;;;;;;11.57;6.97;;;;;;;;;;4990752;28;20263;-55
2022/09/23 04:06:46;;;;;;;9.75;6.80;;;;;;;;;;4993800;28;20623;-53
2022/09/23 04:09:13;;;;;;;9.45;6.72;;;;;;;;;;4994122;28;20748;-49
2022/09/23 04:11:40;;;;;;;9.63;6.75;;;;;;;;;;4994099;28;20547;-49
2022/09/23 04:14:07;;;;;;;10.35;6.65;;;;;;;;;;4994088;28;20324;-50
2022/09/23 04:16:34;;;;;;;9.52;6.30;;;;;;;;;;4993934;28;20257;-53
2022/09/23 04:19:02;;;;;;;11.02;6.32;;;;;;;;;;4993826;28;20240;-50
2022/09/23 04:21:31;;;;;;;9.20;7.10;;;;;;;;;;4994573;28;20222;-52
2022/09/23 04:23:58;;;;;;;9.55;7.00;;;;;;;;;;4994322;28;20292;-52
2022/09/23 04:26:25;;;;;;;7.45;5.85;;;;;;;;;;4994780;28;20291;-54
2022/09/23 04:28:53;;;;;;;8.75;6.75;;;;;;;;;;4994193;28;20303;-50
2022/09/23 04:31:22;;;;;;;10.95;7.22;;;;;;;;;;4994429;28;20229;-50
2022/09/23 04:33:51;;;;;;;11.88;7.22;;;;;;;;;;4993563;28;20300;-57
2022/09/23 04:36:18;;;;;;;10.15;7.25;;;;;;;;;;4994495;28;20309;-52
2022/09/23 04:38:46;;;;;;;9.75;6.75;;;;;;;;;;4994000;28;20229;-50
2022/09/23 04:41:14;;;;;;;10.27;6.78;;;;;;;;;;4994174;28;20253;-49
2022/09/23 04:43:41;;;;;;;12.07;7.03;;;;;;;;;;4993290;28;20296;-57
2022/09/23 04:46:10;;;;;;;8.48;6.00;;;;;;;;;;4993423;28;20292;-54
2022/09/23 04:48:38;;;;;;;11.48;6.68;;;;;;;;;;4993143;28;20330;-52
2022/09/23 04:51:13;;;;;;;12.02;6.93;;;;;;;;;;4993402;28;20611;-56
2022/09/23 04:53:43;;;;;;;16.48;10.00;;;;;;;;;;4993656;28;24013;-49
2022/09/23 04:56:15;;;;;;;16.95;9.70;;;;;;;;;;4993080;28;20226;-54
2022/09/23 04:58:43;;;;;;;11.15;7.18;;;;;;;;;;4993186;28;20284;-50
2022/09/23 05:01:14;;;;;;;10.93;6.53;;;;;;;;;;4994345;28;20671;-49
2022/09/23 05:03:42;;;;;;;8.43;6.82;;;;;;;;;;4993355;28;20226;-49
2022/09/23 05:06:12;;;;;;;10.70;7.05;;;;;;;;;;4976840;28;20233;-51
2022/09/23 05:08:45;;;;;;;8.93;6.90;;;;;;;;;;4993388;28;20709;-50
2022/09/23 05:11:12;;;;;;;9.15;6.40;;;;;;;;;;4998964;28;20233;-55
2022/09/23 05:13:39;;;;;;;10.85;6.28;;;;;;;;;;5003319;28;20249;-50
2022/09/23 05:16:08;;;;;;;11.35;6.78;;;;;;;;;;4999601;28;20209;-51
2022/09/23 05:18:41;;;;;;;13.30;6.88;;;;;;;;;;4995800;28;20206;-48
2022/09/23 05:21:10;;;;;;;8.23;6.57;;;;;;;;;;4998082;28;20301;-51
2022/09/23 05:23:38;;;;;;;9.02;6.30;;;;;;;;;;4998145;28;20217;-50
2022/09/23 05:26:10;;;;;;;8.68;6.53;;;;;;;;;;4997903;28;20711;-49
2022/09/23 05:28:38;;;;;;;9.98;6.70;;;;;;;;;;4999422;28;20213;-49
2022/09/23 05:31:08;;;;;;;10.45;6.45;;;;;;;;;;5008239;28;20198;-51
2022/09/23 05:33:35;;;;;;;11.90;7.10;;;;;;;;;;5000124;28;20293;-51
2022/09/23 05:36:03;;;;;;;9.90;6.28;;;;;;;;;;4997993;28;20230;-48
2022/09/23 05:38:31;;;;;;;8.88;6.72;;;;;;;;;;4997853;28;20210;-49
2022/09/23 05:40:59;;;;;;;9.40;6.32;;;;;;;;;;4997929;28;20234;-48
2022/09/23 05:43:27;;;;;;;8.73;7.03;;;;;;;;;;4978940;28;20187;-48
2022/09/23 05:46:09;;;;;;;9.23;6.65;;;;;;;;;;4978914;28;20206;-48
2022/09/23 05:48:37;;;;;;;11.52;6.60;;;;;;;;;;4978742;28;20183;-49
2022/09/23 05:51:10;;;;;;;15.50;7.82;;;;;;;;;;4978442;28;20203;-48
2022/09/23 05:53:38;;;;;;;11.82;7.43;;;;;;;;;;4978942;28;20199;-50
2022/09/23 05:56:05;;;;;;;12.68;7.55;;;;;;;;;;4978202;28;20227;-49
2022/09/23 05:58:32;;;;;;;13.02;7.57;;;;;;;;;;4978246;28;20214;-48
2022/09/23 06:00:59;;;;;;;9.15;7.28;;;;;;;;;;4977915;28;20202;-50
2022/09/23 06:03:26;;;;;;;10.88;7.13;;;;;;;;;;4978375;28;20219;-50
2022/09/23 06:05:54;;;;;;;9.60;7.22;;;;;;;;;;4977939;28;20207;-48
2022/09/23 06:08:22;;;;;;;9.57;6.97;;;;;;;;;;4978191;28;20293;-50
2022/09/23 06:10:49;;;;;;;10.63;7.40;;;;;;;;;;4978016;28;20211;-48
2022/09/23 06:13:20;;;;;;;11.52;7.97;;;;;;;;;;4977855;28;20556;-48
2022/09/23 06:15:47;;;;;;;9.82;7.63;;;;;;;;;;4978099;28;20230;-49
2022/09/23 06:18:16;;;;;;;11.65;7.82;;;;;;;;;;4977893;28;20595;-55
2022/09/23 06:20:43;;;;;;;9.70;8.52;;;;;;;;;;4977876;28;20203;-48
2022/09/23 06:23:10;;;;;;;11.45;8.80;;;;;;;;;;4976495;28;20269;-48
2022/09/23 06:25:37;;;;;;;11.35;8.57;;;;;;;;;;4960892;28;20293;-55
2022/09/23 06:28:10;;;;;;;12.90;8.80;;;;;;;;;;4977553;28;20521;-50
2022/09/23 06:30:41;;;;;;;15.05;9.23;;;;;;;;;;4977178;28;20273;-48
2022/09/23 06:33:11;;;;;;;14.77;9.68;;;;;;;;;;4977613;28;20198;-50
2022/09/23 06:35:38;;;;;;;13.27;9.57;;;;;;;;;;4977632;28;20222;-48
2022/09/23 06:38:05;;;;;;;13.50;9.52;;;;;;;;;;4977371;28;20702;-48
2022/09/23 06:40:32;;;;;;;12.13;8.63;;;;;;;;;;4977146;28;20285;-48
2022/09/23 06:43:00;;;;;;;10.90;8.23;;;;;;;;;;4976590;28;20191;-50
2022/09/23 06:45:28;;;;;;;12.00;9.02;;;;;;;;;;4977419;28;20238;-51
2022/09/23 06:47:56;;;;;;;13.27;8.95;;;;;;;;;;4977279;28;20214;-49
2022/09/23 06:50:24;;;;;;;10.90;8.55;;;;;;;;;;4977240;28;20610;-50
2022/09/23 06:52:55;;;;;;;11.43;8.43;;;;;;;;;;4960530;28;20209;-48
2022/09/23 06:55:23;;;;;;;12.43;9.23;;;;;;;;;;4977053;28;20707;-52
2022/09/23 06:57:50;;;;;;;13.65;9.38;;;;;;;;;;4976725;28;20206;-48
2022/09/23 07:00:18;;;;;;;11.15;8.25;;;;;;;;;;4976818;28;20628;-51
2022/09/23 07:02:45;;;;;;;11.98;7.78;;;;;;;;;;4976948;28;20203;-47
2022/09/23 07:05:14;;;;;;;10.45;8.55;;;;;;;;;;4977057;28;20238;-49
2022/09/23 07:07:42;;;;;;;15.20;9.48;;;;;;;;;;4976416;28;20206;-50
2022/09/23 07:10:10;;;;;;;11.75;8.90;;;;;;;;;;4977242;28;20213;-52
2022/09/23 07:12:37;;;;;;;10.25;8.50;;;;;;;;;;4976579;28;20202;-47
2022/09/23 07:15:06;;;;;;;13.48;9.50;;;;;;;;;;4976660;28;20226;-50
2022/09/23 07:17:33;;;;;;;11.45;9.82;;;;;;;;;;4976464;28;20551;-48
2022/09/23 07:20:01;;;;;;;12.55;9.20;;;;;;;;;;4976845;28;20203;-49
2022/09/23 07:22:27;;;;;;;11.57;8.73;;;;;;;;;;4977035;28;20214;-48
2022/09/23 07:24:55;;;;;;;10.90;8.88;;;;;;;;;;4976403;28;20237;-49
2022/09/23 07:27:26;;;;;;;15.90;9.68;;;;;;;;;;4976277;28;20611;-50
2022/09/23 07:29:53;;;;;;;11.93;7.68;;;;;;;;;;4977101;28;20667;-48
2022/09/23 07:32:21;;;;;;;11.73;8.35;;;;;;;;;;4976413;28;20206;-48
2022/09/23 07:34:48;;;;;;;11.68;8.05;;;;;;;;;;4976370;28;20230;-49
2022/09/23 07:37:16;;;;;;;10.27;7.47;;;;;;;;;;4976133;28;20199;-50
2022/09/23 07:39:44;;;;;;;9.40;7.60;;;;;;;;;;4976248;28;20206;-48
2022/09/23 07:42:12;;;;;;;10.07;7.78;;;;;;;;;;4975630;28;20234;-49
2022/09/23 07:44:42;;;;;;;10.18;7.55;;;;;;;;;;4976436;28;20294;-48
2022/09/23 07:47:10;;;;;;;10.15;7.57;;;;;;;;;;4976708;28;20326;-50
2022/09/23 07:49:37;;;;;;;9.95;7.18;;;;;;;;;;4976079;28;20258;-52
2022/09/23 07:52:04;;;;;;;8.95;7.38;;;;;;;;;;4976012;28;20269;-49
2022/09/23 07:54:32;;;;;;;10.82;7.70;;;;;;;;;;4976090;28;20202;-48
2022/09/23 07:56:59;;;;;;;9.43;7.18;;;;;;;;;;4976557;28;20202;-51
2022/09/23 07:59:26;;;;;;;9.57;6.80;;;;;;;;;;4976313;28;20199;-48
2022/09/23 08:01:54;;;;;;;8.63;7.00;;;;;;;;;;4976060;28;20583;-48
2022/09/23 08:04:24;;;;;;;11.93;7.40;;;;;;;;;;4976026;28;20265;-52
2022/09/23 08:06:54;;;;;;;11.20;8.18;;;;;;;;;;4975850;28;20293;-48
2022/09/23 08:09:23;;;;;;;9.48;7.75;;;;;;;;;;4976214;28;20207;-47
2022/09/23 08:11:51;;;;;;;10.05;7.40;;;;;;;;;;4976417;28;20274;-50
2022/09/23 08:14:18;;;;;;;9.02;6.80;;;;;;;;;;4975776;28;20213;-49
2022/09/23 08:16:46;;;;;;;9.02;7.03;;;;;;;;;;4976173;28;20234;-49
2022/09/23 08:19:14;;;;;;;8.95;7.25;;;;;;;;;;4975737;28;20211;-48
2022/09/23 08:21:41;;;;;;;10.90;7.38;;;;;;;;;;4976254;28;20213;-48
2022/09/23 08:24:13;;;;;;;8.98;7.05;;;;;;;;;;4975992;28;20235;-49
2022/09/23 08:26:40;;;;;;;9.25;6.82;;;;;;;;;;4976157;28;20195;-48
2022/09/23 08:29:10;;;;;;;11.82;7.55;;;;;;;;;;4975883;28;20206;-49
2022/09/23 08:31:38;;;;;;;9.90;6.72;;;;;;;;;;4976032;28;20207;-50
2022/09/23 08:34:05;;;;;;;11.63;6.18;;;;;;;;;;4976183;28;20245;-51
2022/09/23 08:36:33;;;;;;;7.60;6.20;;;;;;;;;;4975779;28;20273;-49
2022/09/23 08:39:00;;;;;;;13.77;6.57;;;;;;;;;;4975958;28;20293;-47
2022/09/23 08:41:30;;;;;;;8.00;6.10;;;;;;;;;;4975770;28;20235;-48
2022/09/23 08:44:00;;;;;;;8.55;6.32;;;;;;;;;;4975755;28;20218;-49
2022/09/23 08:46:35;;;;;;;7.93;6.00;;;;;;;;;;4975631;28;20298;-50
2022/09/23 08:49:04;;;;;;;8.32;6.18;;;;;;;;;;4975796;28;20183;-48
2022/09/23 08:51:39;;;;;;;8.95;6.78;;;;;;;;;;4974675;28;20541;-48
2022/09/23 08:54:09;;;;;;;8.73;6.22;;;;;;;;;;4962413;28;20552;-49
2022/09/23 08:56:37;;;;;;;9.20;6.65;;;;;;;;;;4962423;28;20285;-49
2022/09/23 08:59:12;;;;;;;11.30;6.10;;;;;;;;;;4978976;28;20636;-48
2022/09/23 09:01:47;;;;;;;7.78;6.43;;;;;;;;;;4962576;28;20612;-50
2022/09/23 09:04:31;;;;;;;9.40;6.18;;;;;;;;;;4979364;28;20210;-48
2022/09/23 09:07:03;;;;;;;9.75;7.40;;;;;;;;;;4979104;28;20225;-50
2022/09/23 09:09:51;;;;;;;10.50;8.23;;;;;;;;;;4979345;28;20293;-48
2022/09/23 09:12:27;;;;;;;12.75;7.90;;;;;;;;;;4962362;28;20207;-48
2022/09/23 09:15:01;;;;;;;10.48;8.52;;;;;;;;;;4979057;28;20214;-48
2022/09/23 09:17:35;;;;;;;11.95;8.23;;;;;;;;;;4978271;28;20208;-49
2022/09/23 09:20:17;;;;;;;10.63;8.60;;;;;;;;;;4979195;28;20202;-49
2022/09/23 09:22:48;;;;;;;12.93;10.10;;;;;;;;;;4978864;28;20191;-47
2022/09/23 09:25:49;;;;;;;14.30;10.02;;;;;;;;;;4979523;28;20219;-50
2022/09/23 09:28:35;;;;;;;12.88;10.65;;;;;;;;;;4961864;28;20210;-49
2022/09/23 09:31:28;;;;;;;18.50;10.27;;;;;;;;;;4962004;28;20213;-48
2022/09/23 09:33:59;;;;;;;10.52;8.27;;;;;;;;;;4962243;28;20203;-49
2022/09/23 09:36:37;;;;;;;11.23;8.65;;;;;;;;;;4961599;28;20219;-48
2022/09/23 09:39:05;;;;;;;9.45;8.35;;;;;;;;;;4978541;28;20206;-49
2022/09/23 09:41:32;;;;;;;12.50;8.98;;;;;;;;;;4978621;28;20257;-48
2022/09/23 09:44:02;;;;;;;12.50;8.73;;;;;;;;;;4978622;28;20203;-48
2022/09/23 09:47:05;;;;;;;10.48;8.02;;;;;;;;;;4978287;28;20207;-49
2022/09/23 09:49:41;;;;;;;8.93;7.05;;;;;;;;;;4979007;28;20202;-47
2022/09/23 09:52:19;;;;;;;9.63;7.45;;;;;;;;;;4978186;28;20199;-49
2022/09/23 09:54:48;;;;;;;7.60;6.65;;;;;;;;;;4961159;28;20198;-48
2022/09/23 09:57:26;;;;;;;9.07;6.85;;;;;;;;;;4978013;28;20230;-47
2022/09/23 10:00:17;;;;;;;12.82;7.22;;;;;;;;;;4978068;28;20633;-49
2022/09/23 10:02:45;;;;;;;8.13;7.25;;;;;;;;;;4978014;28;20191;-50
2022/09/23 10:05:34;;;;;;;8.88;6.90;;;;;;;;;;4976713;28;20209;-48
2022/09/23 10:08:19;;;;;;;11.60;8.32;;;;;;;;;;4977109;28;20545;-48
2022/09/23 10:11:00;;;;;;;9.88;7.50;;;;;;;;;;4977869;28;20620;-50
2022/09/23 10:13:29;;;;;;;9.32;7.32;;;;;;;;;;4977940;28;20205;-48
2022/09/23 10:15:58;;;;;;;9.82;7.10;;;;;;;;;;4977649;28;20565;-49
2022/09/23 10:18:28;;;;;;;9.15;6.60;;;;;;;;;;4977664;28;20212;-48
2022/09/23 10:21:00;;;;;;;6.70;5.93;;;;;;;;;;4977689;28;20198;-49
2022/09/23 10:23:28;;;;;;;6.13;5.40;;;;;;;;;;4960971;28;20218;-49
2022/09/23 10:26:01;;;;;;;6.75;5.47;;;;;;;;;;4961138;28;20266;-49
2022/09/23 10:28:46;;;;;;;7.05;6.10;;;;;;;;;;4976619;28;20628;-48
2022/09/23 10:31:25;;;;;;;6.45;5.53;;;;;;;;;;4961077;28;20210;-48
2022/09/23 10:34:19;;;;;;;8.07;5.07;;;;;;;;;;4977701;28;20202;-48
2022/09/23 10:36:53;;;;;;;5.93;5.00;;;;;;;;;;4976623;28;20682;-49
2022/09/23 10:48:54;;;;;;;9.23;4.90;;;;;;;;;;4963031;28;20640;-50
2022/09/23 10:51:28;;;;;;;5.22;4.68;;;;;;;;;;4972865;28;20203;-49
2022/09/23 10:54:09;;;;;;;7.88;5.70;;;;;;;;;;4960812;28;20214;-49
2022/09/23 10:56:42;;;;;;;7.45;5.70;;;;;;;;;;4977045;28;20663;-47
2022/09/23 10:59:17;;;;;;;7.57;6.03;;;;;;;;;;4960637;28;20587;-49
2022/09/23 11:02:03;;;;;;;8.98;4.53;;;;;;;;;;4976960;28;20249;-50
2022/09/23 11:04:51;;;;;;;9.30;4.53;;;;;;;;;;4942966;28;20309;-51
2022/09/23 11:07:34;;;;;;;12.65;4.25;;;;;;;;;;4976665;28;20211;-50
2022/09/23 11:10:22;;;;;;;8.50;3.47;;;;;;;;;;4960665;28;20203;-49
2022/09/23 11:13:12;;;;;;;4.85;2.95;;;;;;;;;;4977151;28;20206;-51
2022/09/23 11:15:54;;;;;;;2.90;2.60;;;;;;;;;;4976257;28;20297;-49
2022/09/23 11:18:28;;;;;;;3.20;2.40;;;;;;;;;;4976306;28;20654;-51
2022/09/23 11:21:06;;;;;;;2.70;1.85;;;;;;;;;;4976878;28;20226;-49
2022/09/23 11:24:14;;;;;;;1.75;1.63;;;;;;;;;;4976859;28;20206;-52
2022/09/23 11:26:51;;;;;;;2.90;1.90;;;;;;;;;;4966666;28;20203;-48
2022/09/23 11:29:54;;;;;;;2.63;2.38;;;;;;;;;;4976777;28;20510;-48
2022/09/23 11:32:37;;;;;;;1.70;1.60;;;;;;;;;;4963111;28;20214;-49
2022/09/23 11:35:23;;;;;;;2.75;1.65;;;;;;;;;;4976297;28;20195;-48
2022/09/23 11:38:14;;;;;;;1.85;1.75;;;;;;;;;;4976282;28;20656;-51
2022/09/23 11:40:44;;;;;;;1.45;1.35;;;;;;;;;;4976291;28;20289;-50
2022/09/23 11:43:28;;;;;;;1.15;1.05;;;;;;;;;;4981596;28;20206;-54
2022/09/23 11:45:55;;;;;;;1.58;1.27;;;;;;;;;;4988134;28;20193;-49
2022/09/23 11:48:31;;;;;;;1.65;1.40;;;;;;;;;;5003603;28;20524;-49
2022/09/23 11:51:02;;;;;;;1.38;1.20;;;;;;;;;;4999269;28;20204;-48
2022/09/23 11:53:41;;;;;;;2.88;1.45;;;;;;;;;;4984121;28;20192;-50
2022/09/23 11:56:16;;;;;;;2.15;1.50;;;;;;;;;;4995080;28;20232;-51
2022/09/23 11:59:05;;;;;;;1.83;1.50;;;;;;;;;;5013945;28;20540;-50
2022/09/23 12:01:37;;;;;;;3.97;1.70;;;;;;;;;;4998624;28;20560;-49
2022/09/23 12:04:29;;;;;;;3.20;1.98;;;;;;;;;;4983895;28;20183;-53
2022/09/23 12:07:07;;;;;;;2.92;1.48;;;;;;;;;;4980239;28;20205;-56
2022/09/23 12:09:58;;;;;;;3.63;1.27;;;;;;;;;;4999245;28;20194;-52
2022/09/23 12:12:50;;;;;;;2.45;1.40;;;;;;;;;;4996430;28;20194;-58
2022/09/23 12:15:44;;;;;;;1.98;1.30;;;;;;;;;;4983245;28;20191;-59
2022/09/23 12:18:38;;;;;;;1.88;1.20;;;;;;;;;;4995180;28;20190;-58
2022/09/23 12:21:25;;;;;;;1.88;1.70;;;;;;;;;;4999692;28;20623;-56
2022/09/23 12:24:21;;;;;;;3.75;1.73;;;;;;;;;;5004360;28;20268;-56
2022/09/23 12:26:52;;;;;;;2.45;1.42;;;;;;;;;;4999628;28;20197;-57
2022/09/23 12:29:19;;;;;;;2.28;1.88;;;;;;;;;;5004678;28;20200;-56
2022/09/23 12:31:47;;;;;;;4.07;1.80;;;;;;;;;;5007404;28;20572;-58
2022/09/23 12:34:26;;;;;;;2.72;1.70;;;;;;;;;;4989195;28;20198;-58
2022/09/23 12:36:53;;;;;;;1.83;1.73;;;;;;;;;;5005387;28;20217;-58
2022/09/23 12:39:24;;;;;;;2.53;1.95;;;;;;;;;;4981718;28;20280;-56
2022/09/23 12:42:00;;;;;;;2.97;1.75;;;;;;;;;;4982988;28;20241;-58
2022/09/23 12:44:40;;;;;;;2.22;1.77;;;;;;;;;;4982503;28;20217;-56
2022/09/23 12:47:13;;;;;;;5.18;1.95;;;;;;;;;;5002962;28;20666;-58
2022/09/23 12:49:42;;;;;;;2.42;1.85;;;;;;;;;;5007398;28;20229;-58
2022/09/23 12:52:09;;;;;;;2.28;2.08;;;;;;;;;;4987502;28;20224;-59
2022/09/23 12:54:40;;;;;;;2.70;2.20;;;;;;;;;;5004194;28;20267;-58
2022/09/23 12:57:09;;;;;;;2.25;2.05;;;;;;;;;;5006278;28;20240;-56
2022/09/23 13:00:06;;;;;;;4.25;2.50;;;;;;;;;;5003198;28;20287;-58
2022/09/23 13:02:35;;;;;;;5.30;3.30;;;;;;;;;;4945759;29;20224;-58
2022/09/23 13:08:05;;;;;;;4.35;3.47;;;;;;;;;;4939381;29;20242;-56
2022/09/23 13:10:38;;;;;;;3.30;2.85;;;;;;;;;;4947722;29;20567;-57
2022/09/23 13:13:14;;;;;;;3.95;3.05;;;;;;;;;;4942233;29;20290;-57
2022/09/23 13:15:41;;;;;;;8.57;2.65;;;;;;;;;;4942517;29;20932;-57
2022/09/23 13:18:20;;;;;;;3.78;2.78;;;;;;;;;;4940206;29;20689;-59
2022/09/23 13:20:48;;;;;;;3.95;3.17;;;;;;;;;;4945289;29;20567;-58
2022/09/23 13:23:25;;;;;;;5.70;3.25;;;;;;;;;;4943970;29;20686;-58
2022/09/23 13:25:58;;;;;;;6.18;3.78;;;;;;;;;;4931084;29;20316;-58
2022/09/23 13:28:32;;;;;;;5.20;3.90;;;;;;;;;;4941155;29;20236;-56
2022/09/23 13:31:05;;;;;;;5.00;3.75;;;;;;;;;;4943428;29;20254;-60
2022/09/23 13:33:42;;;;;;;4.25;3.85;;;;;;;;;;4944805;29;20232;-58
2022/09/23 13:36:12;;;;;;;5.28;4.20;;;;;;;;;;4945463;29;20559;-59
2022/09/23 13:38:41;;;;;;;5.95;4.60;;;;;;;;;;4952789;28;20291;-58
2022/09/23 13:41:24;;;;;;;5.40;4.20;;;;;;;;;;4988134;28;20233;-57
2022/09/23 13:43:57;;;;;;;4.97;3.80;;;;;;;;;;4987125;28;20275;-58
2022/09/23 13:46:28;;;;;;;4.72;3.40;;;;;;;;;;4986535;28;20218;-56
2022/09/23 13:48:55;;;;;;;4.35;3.53;;;;;;;;;;5003450;28;20234;-58
2022/09/23 13:51:35;;;;;;;5.15;3.60;;;;;;;;;;5013437;28;20248;-54
2022/09/23 13:54:03;;;;;;;3.75;3.00;;;;;;;;;;5003941;28;20259;-59
2022/09/23 13:56:31;;;;;;;3.88;2.80;;;;;;;;;;5006176;28;20225;-57
2022/09/23 13:59:20;;;;;;;4.85;2.95;;;;;;;;;;4986106;28;20287;-58
2022/09/23 14:01:47;;;;;;;3.88;2.80;;;;;;;;;;5006334;28;20213;-58
2022/09/23 14:04:24;;;;;;;3.55;2.90;;;;;;;;;;5006723;28;20705;-55
2022/09/23 14:06:52;;;;;;;5.25;3.50;;;;;;;;;;5003036;28;20224;-57
2022/09/23 14:09:26;;;;;;;5.70;3.42;;;;;;;;;;5005632;28;20295;-57
2022/09/23 14:11:56;;;;;;;3.55;2.80;;;;;;;;;;4988851;28;20305;-58
2022/09/23 14:14:23;;;;;;;2.20;1.80;;;;;;;;;;5000244;28;20230;-58
2022/09/23 14:16:50;;;;;;;2.97;1.73;;;;;;;;;;4987725;28;20241;-58
2022/09/23 14:19:20;;;;;;;2.15;1.60;;;;;;;;;;5005104;28;20233;-57
2022/09/23 14:21:52;;;;;;;2.92;1.75;;;;;;;;;;5005506;28;20213;-58
2022/09/23 14:24:21;;;;;;;2.97;1.77;;;;;;;;;;4983479;28;20222;-57
2022/09/23 14:27:03;;;;;;;2.40;1.75;;;;;;;;;;5003954;28;20221;-57
2022/09/23 14:29:32;;;;;;;4.78;1.75;;;;;;;;;;4985021;28;20589;-59
2022/09/23 14:32:05;;;;;;;1.73;1.60;;;;;;;;;;5003602;28;20213;-57
2022/09/23 14:34:57;;;;;;;4.55;1.60;;;;;;;;;;4987954;28;20651;-55
2022/09/23 14:40:28;;;;;;;2.45;1.90;;;;;;;;;;5001246;28;20576;-59
2022/09/23 14:43:02;;;;;;;3.00;2.10;;;;;;;;;;4986158;28;20236;-54
2022/09/23 14:45:36;;;;;;;6.38;2.05;;;;;;;;;;4979435;28;20225;-54
2022/09/23 14:48:13;;;;;;;3.58;2.35;;;;;;;;;;4996787;28;20222;-56
2022/09/23 14:50:50;;;;;;;2.72;2.10;;;;;;;;;;4977690;28;20238;-58
2022/09/23 14:53:21;;;;;;;4.63;2.25;;;;;;;;;;4977817;28;20256;-58
2022/09/23 14:55:56;;;;;;;4.22;2.47;;;;;;;;;;4994757;28;20222;-59
2022/09/23 14:58:29;;;;;;;4.88;2.33;;;;;;;;;;4975887;28;20324;-58
2022/09/23 15:00:59;;;;;;;2.83;2.20;;;;;;;;;;4964192;28;20226;-56
2022/09/23 15:03:27;;;;;;;2.88;2.53;;;;;;;;;;4994991;28;20240;-58
2022/09/23 15:05:58;;;;;;;4.18;2.90;;;;;;;;;;4977946;28;20570;-57
2022/09/23 15:08:26;;;;;;;8.52;3.50;;;;;;;;;;4976909;28;20702;-58
2022/09/23 15:10:53;;;;;;;4.57;3.10;;;;;;;;;;4978054;28;20730;-56
2022/09/23 15:13:29;;;;;;;4.28;3.50;;;;;;;;;;4994242;28;20675;-58
2022/09/23 15:15:58;;;;;;;4.40;3.28;;;;;;;;;;4990383;28;20230;-58
2022/09/23 15:18:26;;;;;;;4.40;3.33;;;;;;;;;;5006893;28;20263;-58
2022/09/23 15:21:01;;;;;;;5.55;3.28;;;;;;;;;;4997234;28;20224;-58
2022/09/23 15:23:47;;;;;;;4.43;3.03;;;;;;;;;;5014647;28;20283;-58
2022/09/23 15:26:16;;;;;;;5.22;2.88;;;;;;;;;;5013776;28;20249;-58
2022/09/23 15:28:44;;;;;;;3.33;2.70;;;;;;;;;;5013701;28;20239;-58
2022/09/23 15:31:17;;;;;;;4.20;2.90;;;;;;;;;;4997934;28;20562;-60